sensor_id;sensor_type;location;lat;lon;timestamp;P1;durP1;ratioP1;P2;durP2;ratioP2
2912;SDS011;1466;48.778;9.166;2022-11-20T00:02:24;20.00;;;9.47;;
2912;SDS011;1466;48.778;9.166;2022-11-20T00:04:49;26.30;;;10.37;;
2912;SDS011;1466;48.778;9.166;2022-11-20T00:07:15;25.70;;;11.30;;
2912;SDS011;1466;48.778;9.166;2022-11-20T00:09:40;37.03;;;10.13;;
2912;SDS011;1466;48.778;9.166;2022-11-20T00:12:06;17.87;;;9.73;;
2912;SDS011;1466;48.778;9.166;2022-11-20T00:14:32;17.97;;;9.47;;
2912;SDS011;1466;48.778;9.166;2022-11-20T00:16:57;16.23;;;8.00;;
2912;SDS011;1466;48.778;9.166;2022-11-20T00:19:23;17.70;;;7.53;;
2912;SDS011;1466;48.778;9.166;2022-11-20T00:21:49;11.85;;;7.10;;
2912;SDS011;1466;48.778;9.166;2022-11-20T00:24:16;19.92;;;9.07;;
2912;SDS011;1466;48.778;9.166;2022-11-20T00:26:42;12.83;;;6.83;;
2912;SDS011;1466;48.778;9.166;2022-11-20T00:29:08;13.87;;;6.80;;
2912;SDS011;1466;48.778;9.166;2022-11-20T00:31:35;14.50;;;6.75;;
2912;SDS011;1466;48.778;9.166;2022-11-20T00:34:01;17.45;;;7.28;;
2912;SDS011;1466;48.778;9.166;2022-11-20T00:36:27;12.33;;;6.40;;
2912;SDS011;1466;48.778;9.166;2022-11-20T00:38:54;12.82;;;6.03;;
2912;SDS011;1466;48.778;9.166;2022-11-20T00:41:21;12.18;;;6.43;;
2912;SDS011;1466;48.778;9.166;2022-11-20T00:43:48;26.92;;;8.93;;
2912;SDS011;1466;48.778;9.166;2022-11-20T00:46:17;10.37;;;6.30;;
2912;SDS011;1466;48.778;9.166;2022-11-20T00:48:44;14.50;;;6.45;;
2912;SDS011;1466;48.778;9.166;2022-11-20T00:51:11;14.63;;;5.87;;
2912;SDS011;1466;48.778;9.166;2022-11-20T00:53:38;10.77;;;5.88;;
2912;SDS011;1466;48.778;9.166;2022-11-20T00:56:05;8.53;;;4.83;;
2912;SDS011;1466;48.778;9.166;2022-11-20T00:58:33;12.80;;;6.13;;
2912;SDS011;1466;48.778;9.166;2022-11-20T01:01:03;12.80;;;6.20;;
2912;SDS011;1466;48.778;9.166;2022-11-20T01:03:33;14.57;;;5.88;;
2912;SDS011;1466;48.778;9.166;2022-11-20T01:06:03;12.65;;;5.45;;
2912;SDS011;1466;48.778;9.166;2022-11-20T01:08:30;10.77;;;5.65;;
2912;SDS011;1466;48.778;9.166;2022-11-20T01:11:05;9.10;;;5.47;;
2912;SDS011;1466;48.778;9.166;2022-11-20T01:13:32;14.63;;;5.90;;
2912;SDS011;1466;48.778;9.166;2022-11-20T01:16:12;11.82;;;5.32;;
2912;SDS011;1466;48.778;9.166;2022-11-20T01:18:39;11.25;;;5.60;;
2912;SDS011;1466;48.778;9.166;2022-11-20T01:21:07;20.15;;;6.85;;
2912;SDS011;1466;48.778;9.166;2022-11-20T01:23:35;11.35;;;4.93;;
2912;SDS011;1466;48.778;9.166;2022-11-20T01:26:03;9.07;;;4.63;;
2912;SDS011;1466;48.778;9.166;2022-11-20T01:28:31;9.50;;;5.18;;
2912;SDS011;1466;48.778;9.166;2022-11-20T01:30:57;7.97;;;4.88;;
2912;SDS011;1466;48.778;9.166;2022-11-20T01:33:23;8.40;;;4.88;;
2912;SDS011;1466;48.778;9.166;2022-11-20T01:35:48;11.77;;;5.50;;
2912;SDS011;1466;48.778;9.166;2022-11-20T01:38:15;13.47;;;5.53;;
2912;SDS011;1466;48.778;9.166;2022-11-20T01:40:41;8.55;;;5.00;;
2912;SDS011;1466;48.778;9.166;2022-11-20T01:43:13;17.00;;;6.47;;
2912;SDS011;1466;48.778;9.166;2022-11-20T01:48:33;9.75;;;4.50;;
2912;SDS011;1466;48.778;9.166;2022-11-20T01:54:10;25.40;;;7.82;;
2912;SDS011;1466;48.778;9.166;2022-11-20T01:56:40;11.15;;;4.88;;
2912;SDS011;1466;48.778;9.166;2022-11-20T01:59:09;13.90;;;5.68;;
2912;SDS011;1466;48.778;9.166;2022-11-20T02:01:37;9.82;;;4.53;;
2912;SDS011;1466;48.778;9.166;2022-11-20T02:04:04;14.80;;;5.95;;
2912;SDS011;1466;48.778;9.166;2022-11-20T02:06:36;7.68;;;4.63;;
2912;SDS011;1466;48.778;9.166;2022-11-20T02:09:12;9.30;;;5.05;;
2912;SDS011;1466;48.778;9.166;2022-11-20T02:11:39;6.82;;;4.13;;
2912;SDS011;1466;48.778;9.166;2022-11-20T02:14:05;15.60;;;5.63;;
2912;SDS011;1466;48.778;9.166;2022-11-20T02:16:32;14.40;;;6.10;;
2912;SDS011;1466;48.778;9.166;2022-11-20T02:19:02;10.27;;;5.45;;
2912;SDS011;1466;48.778;9.166;2022-11-20T02:24:18;10.85;;;5.43;;
2912;SDS011;1466;48.778;9.166;2022-11-20T02:26:57;9.32;;;4.55;;
2912;SDS011;1466;48.778;9.166;2022-11-20T02:29:33;8.32;;;4.53;;
2912;SDS011;1466;48.778;9.166;2022-11-20T02:32:10;9.10;;;5.00;;
2912;SDS011;1466;48.778;9.166;2022-11-20T02:34:46;8.32;;;4.55;;
2912;SDS011;1466;48.778;9.166;2022-11-20T02:37:12;8.83;;;4.53;;
2912;SDS011;1466;48.778;9.166;2022-11-20T02:39:38;6.38;;;4.22;;
2912;SDS011;1466;48.778;9.166;2022-11-20T02:42:05;10.27;;;4.72;;
2912;SDS011;1466;48.778;9.166;2022-11-20T02:44:30;14.30;;;4.80;;
2912;SDS011;1466;48.778;9.166;2022-11-20T02:46:56;9.33;;;5.10;;
2912;SDS011;1466;48.778;9.166;2022-11-20T02:49:23;23.15;;;6.65;;
2912;SDS011;1466;48.778;9.166;2022-11-20T02:51:49;16.77;;;5.67;;
2912;SDS011;1466;48.778;9.166;2022-11-20T02:54:15;14.40;;;5.57;;
2912;SDS011;1466;48.778;9.166;2022-11-20T02:56:40;11.90;;;5.27;;
2912;SDS011;1466;48.778;9.166;2022-11-20T02:59:06;14.37;;;5.33;;
2912;SDS011;1466;48.778;9.166;2022-11-20T03:01:32;9.67;;;4.50;;
2912;SDS011;1466;48.778;9.166;2022-11-20T03:03:58;19.30;;;6.67;;
2912;SDS011;1466;48.778;9.166;2022-11-20T03:06:23;11.43;;;5.27;;
2912;SDS011;1466;48.778;9.166;2022-11-20T03:08:49;19.00;;;6.73;;
2912;SDS011;1466;48.778;9.166;2022-11-20T03:11:15;7.87;;;4.47;;
2912;SDS011;1466;48.778;9.166;2022-11-20T03:13:41;9.70;;;5.00;;
2912;SDS011;1466;48.778;9.166;2022-11-20T03:16:14;11.70;;;5.63;;
2912;SDS011;1466;48.778;9.166;2022-11-20T03:18:41;8.68;;;4.45;;
2912;SDS011;1466;48.778;9.166;2022-11-20T03:21:08;12.90;;;5.50;;
2912;SDS011;1466;48.778;9.166;2022-11-20T03:23:35;15.13;;;5.82;;
2912;SDS011;1466;48.778;9.166;2022-11-20T03:26:20;9.10;;;5.25;;
2912;SDS011;1466;48.778;9.166;2022-11-20T03:28:52;7.78;;;5.20;;
2912;SDS011;1466;48.778;9.166;2022-11-20T03:31:23;12.30;;;5.05;;
2912;SDS011;1466;48.778;9.166;2022-11-20T03:33:56;21.58;;;6.88;;
2912;SDS011;1466;48.778;9.166;2022-11-20T03:36:23;10.95;;;5.30;;
2912;SDS011;1466;48.778;9.166;2022-11-20T03:38:48;9.20;;;4.60;;
2912;SDS011;1466;48.778;9.166;2022-11-20T03:41:15;11.73;;;6.00;;
2912;SDS011;1466;48.778;9.166;2022-11-20T03:43:48;9.57;;;5.45;;
2912;SDS011;1466;48.778;9.166;2022-11-20T03:46:14;10.27;;;5.10;;
2912;SDS011;1466;48.778;9.166;2022-11-20T03:48:39;12.17;;;5.70;;
2912;SDS011;1466;48.778;9.166;2022-11-20T03:51:09;13.13;;;6.00;;
2912;SDS011;1466;48.778;9.166;2022-11-20T03:53:40;11.88;;;5.20;;
2912;SDS011;1466;48.778;9.166;2022-11-20T03:56:07;13.63;;;5.38;;
2912;SDS011;1466;48.778;9.166;2022-11-20T03:58:34;23.75;;;7.63;;
2912;SDS011;1466;48.778;9.166;2022-11-20T04:01:05;12.18;;;5.72;;
2912;SDS011;1466;48.778;9.166;2022-11-20T04:03:31;14.50;;;5.93;;
2912;SDS011;1466;48.778;9.166;2022-11-20T04:06:01;17.30;;;7.30;;
2912;SDS011;1466;48.778;9.166;2022-11-20T04:08:31;14.05;;;5.82;;
2912;SDS011;1466;48.778;9.166;2022-11-20T04:11:07;11.40;;;5.73;;
2912;SDS011;1466;48.778;9.166;2022-11-20T04:13:45;19.52;;;7.13;;
2912;SDS011;1466;48.778;9.166;2022-11-20T04:16:12;12.95;;;6.22;;
2912;SDS011;1466;48.778;9.166;2022-11-20T04:18:38;13.52;;;5.78;;
2912;SDS011;1466;48.778;9.166;2022-11-20T04:21:04;14.67;;;6.47;;
2912;SDS011;1466;48.778;9.166;2022-11-20T04:23:30;17.92;;;7.18;;
2912;SDS011;1466;48.778;9.166;2022-11-20T04:26:03;11.33;;;5.40;;
2912;SDS011;1466;48.778;9.166;2022-11-20T04:28:30;12.60;;;5.72;;
2912;SDS011;1466;48.778;9.166;2022-11-20T04:31:03;14.47;;;6.00;;
2912;SDS011;1466;48.778;9.166;2022-11-20T04:33:30;16.98;;;5.95;;
2912;SDS011;1466;48.778;9.166;2022-11-20T04:35:59;10.43;;;5.70;;
2912;SDS011;1466;48.778;9.166;2022-11-20T04:38:29;17.17;;;7.38;;
2912;SDS011;1466;48.778;9.166;2022-11-20T04:40:58;11.83;;;5.40;;
2912;SDS011;1466;48.778;9.166;2022-11-20T04:43:24;11.18;;;5.53;;
2912;SDS011;1466;48.778;9.166;2022-11-20T04:45:53;11.50;;;5.60;;
2912;SDS011;1466;48.778;9.166;2022-11-20T04:48:19;10.48;;;5.82;;
2912;SDS011;1466;48.778;9.166;2022-11-20T04:50:45;9.98;;;5.88;;
2912;SDS011;1466;48.778;9.166;2022-11-20T04:53:11;14.37;;;6.50;;
2912;SDS011;1466;48.778;9.166;2022-11-20T04:55:37;16.30;;;5.73;;
2912;SDS011;1466;48.778;9.166;2022-11-20T04:58:02;12.83;;;5.77;;
2912;SDS011;1466;48.778;9.166;2022-11-20T05:00:28;11.63;;;6.07;;
2912;SDS011;1466;48.778;9.166;2022-11-20T05:02:53;16.53;;;6.60;;
2912;SDS011;1466;48.778;9.166;2022-11-20T05:05:19;12.73;;;5.63;;
2912;SDS011;1466;48.778;9.166;2022-11-20T05:07:44;8.10;;;5.10;;
2912;SDS011;1466;48.778;9.166;2022-11-20T05:10:10;16.17;;;5.83;;
2912;SDS011;1466;48.778;9.166;2022-11-20T05:12:35;9.40;;;5.73;;
2912;SDS011;1466;48.778;9.166;2022-11-20T05:15:01;14.00;;;5.63;;
2912;SDS011;1466;48.778;9.166;2022-11-20T05:17:26;8.83;;;4.83;;
2912;SDS011;1466;48.778;9.166;2022-11-20T05:19:52;10.97;;;5.90;;
2912;SDS011;1466;48.778;9.166;2022-11-20T05:22:17;15.10;;;7.10;;
2912;SDS011;1466;48.778;9.166;2022-11-20T05:24:43;8.30;;;5.00;;
2912;SDS011;1466;48.778;9.166;2022-11-20T05:27:08;11.73;;;6.10;;
2912;SDS011;1466;48.778;9.166;2022-11-20T05:29:34;13.10;;;5.83;;
2912;SDS011;1466;48.778;9.166;2022-11-20T05:32:00;10.27;;;5.37;;
2912;SDS011;1466;48.778;9.166;2022-11-20T05:34:25;9.87;;;4.53;;
2912;SDS011;1466;48.778;9.166;2022-11-20T05:36:51;10.67;;;5.77;;
2912;SDS011;1466;48.778;9.166;2022-11-20T05:39:16;10.43;;;5.40;;
2912;SDS011;1466;48.778;9.166;2022-11-20T05:41:42;19.57;;;6.53;;
2912;SDS011;1466;48.778;9.166;2022-11-20T05:44:09;18.20;;;6.13;;
2912;SDS011;1466;48.778;9.166;2022-11-20T05:46:36;11.35;;;5.85;;
2912;SDS011;1466;48.778;9.166;2022-11-20T05:49:01;9.03;;;4.80;;
2912;SDS011;1466;48.778;9.166;2022-11-20T05:51:27;13.80;;;5.53;;
2912;SDS011;1466;48.778;9.166;2022-11-20T05:53:53;15.17;;;5.50;;
2912;SDS011;1466;48.778;9.166;2022-11-20T05:56:21;14.02;;;5.53;;
2912;SDS011;1466;48.778;9.166;2022-11-20T05:58:47;10.68;;;5.10;;
2912;SDS011;1466;48.778;9.166;2022-11-20T06:03:41;16.10;;;5.97;;
2912;SDS011;1466;48.778;9.166;2022-11-20T06:06:10;16.42;;;5.65;;
2912;SDS011;1466;48.778;9.166;2022-11-20T06:08:36;13.80;;;4.97;;
2912;SDS011;1466;48.778;9.166;2022-11-20T06:11:06;15.23;;;5.50;;
2912;SDS011;1466;48.778;9.166;2022-11-20T06:13:34;7.60;;;4.65;;
2912;SDS011;1466;48.778;9.166;2022-11-20T06:15:59;10.73;;;5.28;;
2912;SDS011;1466;48.778;9.166;2022-11-20T06:18:26;11.20;;;5.03;;
2912;SDS011;1466;48.778;9.166;2022-11-20T06:20:59;19.20;;;6.15;;
2912;SDS011;1466;48.778;9.166;2022-11-20T06:23:45;12.93;;;5.38;;
2912;SDS011;1466;48.778;9.166;2022-11-20T06:26:12;17.35;;;5.65;;
2912;SDS011;1466;48.778;9.166;2022-11-20T06:28:39;18.90;;;6.43;;
2912;SDS011;1466;48.778;9.166;2022-11-20T06:31:05;20.30;;;6.37;;
2912;SDS011;1466;48.778;9.166;2022-11-20T06:33:32;11.27;;;5.05;;
2912;SDS011;1466;48.778;9.166;2022-11-20T06:35:59;12.07;;;4.47;;
2912;SDS011;1466;48.778;9.166;2022-11-20T06:38:25;9.18;;;4.47;;
2912;SDS011;1466;48.778;9.166;2022-11-20T06:40:51;12.82;;;5.43;;
2912;SDS011;1466;48.778;9.166;2022-11-20T06:43:17;11.90;;;5.23;;
2912;SDS011;1466;48.778;9.166;2022-11-20T06:45:43;9.20;;;4.73;;
2912;SDS011;1466;48.778;9.166;2022-11-20T06:48:08;10.43;;;4.83;;
2912;SDS011;1466;48.778;9.166;2022-11-20T06:50:35;28.97;;;7.70;;
2912;SDS011;1466;48.778;9.166;2022-11-20T06:53:02;25.38;;;7.90;;
2912;SDS011;1466;48.778;9.166;2022-11-20T06:55:29;13.18;;;5.20;;
2912;SDS011;1466;48.778;9.166;2022-11-20T06:57:55;13.02;;;5.10;;
2912;SDS011;1466;48.778;9.166;2022-11-20T07:00:21;25.53;;;6.70;;
2912;SDS011;1466;48.778;9.166;2022-11-20T07:02:46;8.33;;;4.47;;
2912;SDS011;1466;48.778;9.166;2022-11-20T07:05:12;31.93;;;8.00;;
2912;SDS011;1466;48.778;9.166;2022-11-20T07:07:37;24.43;;;7.00;;
2912;SDS011;1466;48.778;9.166;2022-11-20T07:10:03;11.73;;;5.17;;
2912;SDS011;1466;48.778;9.166;2022-11-20T07:12:29;13.38;;;5.15;;
2912;SDS011;1466;48.778;9.166;2022-11-20T07:14:55;22.60;;;6.87;;
2912;SDS011;1466;48.778;9.166;2022-11-20T07:17:21;21.85;;;6.63;;
2912;SDS011;1466;48.778;9.166;2022-11-20T07:19:46;30.47;;;7.40;;
2912;SDS011;1466;48.778;9.166;2022-11-20T07:22:12;17.40;;;5.83;;
2912;SDS011;1466;48.778;9.166;2022-11-20T07:24:38;30.60;;;8.17;;
2912;SDS011;1466;48.778;9.166;2022-11-20T07:27:04;12.00;;;4.97;;
2912;SDS011;1466;48.778;9.166;2022-11-20T07:29:29;16.73;;;5.17;;
2912;SDS011;1466;48.778;9.166;2022-11-20T07:31:55;11.17;;;5.50;;
2912;SDS011;1466;48.778;9.166;2022-11-20T07:34:21;27.40;;;7.43;;
2912;SDS011;1466;48.778;9.166;2022-11-20T07:36:47;15.37;;;6.13;;
2912;SDS011;1466;48.778;9.166;2022-11-20T07:39:12;20.73;;;6.80;;
2912;SDS011;1466;48.778;9.166;2022-11-20T07:41:38;14.20;;;5.50;;
2912;SDS011;1466;48.778;9.166;2022-11-20T07:44:04;18.57;;;6.27;;
2912;SDS011;1466;48.778;9.166;2022-11-20T07:46:29;10.47;;;4.80;;
2912;SDS011;1466;48.778;9.166;2022-11-20T07:48:55;15.53;;;5.90;;
2912;SDS011;1466;48.778;9.166;2022-11-20T07:51:21;16.70;;;6.10;;
2912;SDS011;1466;48.778;9.166;2022-11-20T07:53:47;18.77;;;5.90;;
2912;SDS011;1466;48.778;9.166;2022-11-20T07:56:12;10.93;;;4.73;;
2912;SDS011;1466;48.778;9.166;2022-11-20T07:58:39;11.02;;;4.75;;
2912;SDS011;1466;48.778;9.166;2022-11-20T08:01:07;17.90;;;5.93;;
2912;SDS011;1466;48.778;9.166;2022-11-20T08:03:33;9.23;;;4.55;;
2912;SDS011;1466;48.778;9.166;2022-11-20T08:05:59;11.70;;;4.78;;
2912;SDS011;1466;48.778;9.166;2022-11-20T08:08:26;15.95;;;5.80;;
2912;SDS011;1466;48.778;9.166;2022-11-20T08:10:52;9.63;;;4.78;;
2912;SDS011;1466;48.778;9.166;2022-11-20T08:13:17;13.60;;;5.13;;
2912;SDS011;1466;48.778;9.166;2022-11-20T08:16:01;13.93;;;4.88;;
2912;SDS011;1466;48.778;9.166;2022-11-20T08:18:27;9.77;;;4.33;;
2912;SDS011;1466;48.778;9.166;2022-11-20T08:20:53;17.80;;;5.70;;
2912;SDS011;1466;48.778;9.166;2022-11-20T08:23:18;9.70;;;4.67;;
2912;SDS011;1466;48.778;9.166;2022-11-20T08:25:48;18.13;;;5.53;;
2912;SDS011;1466;48.778;9.166;2022-11-20T08:28:14;19.50;;;5.85;;
2912;SDS011;1466;48.778;9.166;2022-11-20T08:30:40;18.30;;;5.47;;
2912;SDS011;1466;48.778;9.166;2022-11-20T08:33:06;14.73;;;5.03;;
2912;SDS011;1466;48.778;9.166;2022-11-20T08:35:34;10.32;;;4.30;;
2912;SDS011;1466;48.778;9.166;2022-11-20T08:38:01;14.85;;;4.70;;
2912;SDS011;1466;48.778;9.166;2022-11-20T08:40:28;20.05;;;6.07;;
2912;SDS011;1466;48.778;9.166;2022-11-20T08:42:54;9.00;;;4.13;;
2912;SDS011;1466;48.778;9.166;2022-11-20T08:45:19;10.63;;;5.00;;
2912;SDS011;1466;48.778;9.166;2022-11-20T08:47:45;15.63;;;5.20;;
2912;SDS011;1466;48.778;9.166;2022-11-20T08:50:12;15.93;;;5.27;;
2912;SDS011;1466;48.778;9.166;2022-11-20T08:52:39;9.07;;;4.30;;
2912;SDS011;1466;48.778;9.166;2022-11-20T08:55:05;9.77;;;4.30;;
2912;SDS011;1466;48.778;9.166;2022-11-20T08:57:32;9.90;;;3.97;;
2912;SDS011;1466;48.778;9.166;2022-11-20T08:59:58;12.02;;;4.70;;
2912;SDS011;1466;48.778;9.166;2022-11-20T09:02:24;5.43;;;3.07;;
2912;SDS011;1466;48.778;9.166;2022-11-20T09:04:50;8.32;;;3.80;;
2912;SDS011;1466;48.778;9.166;2022-11-20T09:07:15;9.03;;;3.80;;
2912;SDS011;1466;48.778;9.166;2022-11-20T09:09:41;13.10;;;4.50;;
2912;SDS011;1466;48.778;9.166;2022-11-20T09:12:07;9.23;;;3.90;;
2912;SDS011;1466;48.778;9.166;2022-11-20T09:14:32;5.73;;;3.63;;
2912;SDS011;1466;48.778;9.166;2022-11-20T09:16:58;11.93;;;4.07;;
2912;SDS011;1466;48.778;9.166;2022-11-20T09:19:24;6.67;;;3.20;;
2912;SDS011;1466;48.778;9.166;2022-11-20T09:21:50;9.13;;;3.97;;
2912;SDS011;1466;48.778;9.166;2022-11-20T09:24:16;14.43;;;4.72;;
2912;SDS011;1466;48.778;9.166;2022-11-20T09:26:41;10.60;;;4.40;;
2912;SDS011;1466;48.778;9.166;2022-11-20T09:29:07;9.17;;;4.27;;
2912;SDS011;1466;48.778;9.166;2022-11-20T09:31:32;6.57;;;3.57;;
2912;SDS011;1466;48.778;9.166;2022-11-20T09:33:58;20.90;;;5.50;;
2912;SDS011;1466;48.778;9.166;2022-11-20T09:36:24;12.10;;;4.40;;
2912;SDS011;1466;48.778;9.166;2022-11-20T09:38:49;13.63;;;4.53;;
2912;SDS011;1466;48.778;9.166;2022-11-20T09:46:54;11.02;;;3.85;;
2912;SDS011;1466;48.778;9.166;2022-11-20T09:49:32;12.50;;;4.20;;
2912;SDS011;1466;48.778;9.166;2022-11-20T09:54:46;8.50;;;3.50;;
2912;SDS011;1466;48.778;9.166;2022-11-20T09:57:15;15.02;;;4.68;;
2912;SDS011;1466;48.778;9.166;2022-11-20T09:59:45;18.92;;;5.35;;
2912;SDS011;1466;48.778;9.166;2022-11-20T10:02:28;15.50;;;5.57;;
2912;SDS011;1466;48.778;9.166;2022-11-20T10:07:55;11.40;;;4.00;;
2912;SDS011;1466;48.778;9.166;2022-11-20T10:10:46;17.50;;;4.57;;
2912;SDS011;1466;48.778;9.166;2022-11-20T10:22:21;14.10;;;4.45;;
2912;SDS011;1466;48.778;9.166;2022-11-20T10:27:19;16.80;;;5.30;;
2912;SDS011;1466;48.778;9.166;2022-11-20T10:29:47;15.88;;;3.95;;
2912;SDS011;1466;48.778;9.166;2022-11-20T10:32:39;10.38;;;4.00;;
2912;SDS011;1466;48.778;9.166;2022-11-20T10:37:44;12.80;;;4.05;;
2912;SDS011;1466;48.778;9.166;2022-11-20T10:50:40;6.78;;;3.55;;
2912;SDS011;1466;48.778;9.166;2022-11-20T10:53:25;7.55;;;3.35;;
2912;SDS011;1466;48.778;9.166;2022-11-20T10:59:49;22.08;;;6.32;;
2912;SDS011;1466;48.778;9.166;2022-11-20T11:01:58;11.07;;;4.45;;
2912;SDS011;1466;48.778;9.166;2022-11-20T11:06:58;9.48;;;4.55;;
2912;SDS011;1466;48.778;9.166;2022-11-20T11:09:32;14.95;;;5.50;;
2912;SDS011;1466;48.778;9.166;2022-11-20T11:12:06;20.85;;;6.05;;
2912;SDS011;1466;48.778;9.166;2022-11-20T11:14:41;15.95;;;4.95;;
2912;SDS011;1466;48.778;9.166;2022-11-20T11:17:20;14.82;;;4.68;;
2912;SDS011;1466;48.778;9.166;2022-11-20T11:19:57;14.02;;;4.68;;
2912;SDS011;1466;48.778;9.166;2022-11-20T11:22:43;8.05;;;3.60;;
2912;SDS011;1466;48.778;9.166;2022-11-20T11:25:18;11.02;;;4.18;;
2912;SDS011;1466;48.778;9.166;2022-11-20T11:28:18;11.63;;;4.60;;
2912;SDS011;1466;48.778;9.166;2022-11-20T11:30:46;10.50;;;4.25;;
2912;SDS011;1466;48.778;9.166;2022-11-20T11:35:54;10.63;;;4.20;;
2912;SDS011;1466;48.778;9.166;2022-11-20T11:38:29;7.60;;;3.78;;
2912;SDS011;1466;48.778;9.166;2022-11-20T11:41:03;10.80;;;4.47;;
2912;SDS011;1466;48.778;9.166;2022-11-20T11:43:32;11.85;;;4.47;;
2912;SDS011;1466;48.778;9.166;2022-11-20T11:46:31;9.00;;;4.07;;
2912;SDS011;1466;48.778;9.166;2022-11-20T11:49:17;11.55;;;4.63;;
2912;SDS011;1466;48.778;9.166;2022-11-20T11:57:51;25.93;;;7.10;;
2912;SDS011;1466;48.778;9.166;2022-11-20T12:05:16;7.68;;;4.05;;
2912;SDS011;1466;48.778;9.166;2022-11-20T12:10:38;10.25;;;4.32;;
2912;SDS011;1466;48.778;9.166;2022-11-20T12:15:59;11.70;;;4.55;;
2912;SDS011;1466;48.778;9.166;2022-11-20T12:18:26;9.73;;;3.90;;
2912;SDS011;1466;48.778;9.166;2022-11-20T12:32:31;6.68;;;3.80;;
2912;SDS011;1466;48.778;9.166;2022-11-20T12:41:25;12.80;;;4.22;;
2912;SDS011;1466;48.778;9.166;2022-11-20T12:44:16;16.83;;;4.88;;
2912;SDS011;1466;48.778;9.166;2022-11-20T13:01:06;10.18;;;4.18;;
2912;SDS011;1466;48.778;9.166;2022-11-20T13:04:00;16.67;;;4.50;;
2912;SDS011;1466;48.778;9.166;2022-11-20T13:06:51;9.40;;;4.35;;
2912;SDS011;1466;48.778;9.166;2022-11-20T13:09:18;5.83;;;3.20;;
2912;SDS011;1466;48.778;9.166;2022-11-20T13:12:07;7.32;;;3.28;;
2912;SDS011;1466;48.778;9.166;2022-11-20T13:14:45;11.43;;;4.20;;
2912;SDS011;1466;48.778;9.166;2022-11-20T13:20:05;8.73;;;4.10;;
2912;SDS011;1466;48.778;9.166;2022-11-20T13:22:44;8.57;;;4.10;;
2912;SDS011;1466;48.778;9.166;2022-11-20T13:25:21;9.05;;;3.90;;
2912;SDS011;1466;48.778;9.166;2022-11-20T13:27:52;6.97;;;3.20;;
2912;SDS011;1466;48.778;9.166;2022-11-20T13:30:19;11.40;;;3.80;;
2912;SDS011;1466;48.778;9.166;2022-11-20T13:32:54;9.63;;;3.95;;
2912;SDS011;1466;48.778;9.166;2022-11-20T13:35:33;10.95;;;3.97;;
2912;SDS011;1466;48.778;9.166;2022-11-20T13:38:07;11.75;;;4.30;;
2912;SDS011;1466;48.778;9.166;2022-11-20T13:40:35;9.80;;;3.70;;
2912;SDS011;1466;48.778;9.166;2022-11-20T13:43:22;9.82;;;4.07;;
2912;SDS011;1466;48.778;9.166;2022-11-20T13:46:09;10.20;;;4.25;;
2912;SDS011;1466;48.778;9.166;2022-11-20T13:48:41;8.35;;;4.07;;
2912;SDS011;1466;48.778;9.166;2022-11-20T14:02:33;16.02;;;5.22;;
2912;SDS011;1466;48.778;9.166;2022-11-20T14:04:58;8.37;;;3.80;;
2912;SDS011;1466;48.778;9.166;2022-11-20T14:07:27;7.45;;;3.55;;
2912;SDS011;1466;48.778;9.166;2022-11-20T14:10:00;13.05;;;4.40;;
2912;SDS011;1466;48.778;9.166;2022-11-20T14:12:29;8.17;;;3.70;;
2912;SDS011;1466;48.778;9.166;2022-11-20T14:14:57;13.07;;;4.68;;
2912;SDS011;1466;48.778;9.166;2022-11-20T14:17:24;10.15;;;4.13;;
2912;SDS011;1466;48.778;9.166;2022-11-20T14:19:59;8.65;;;3.85;;
2912;SDS011;1466;48.778;9.166;2022-11-20T14:22:31;9.95;;;3.20;;
2912;SDS011;1466;48.778;9.166;2022-11-20T14:25:01;4.55;;;3.00;;
2912;SDS011;1466;48.778;9.166;2022-11-20T14:27:41;8.45;;;4.15;;
2912;SDS011;1466;48.778;9.166;2022-11-20T14:30:15;20.80;;;6.60;;
2912;SDS011;1466;48.778;9.166;2022-11-20T14:32:45;13.65;;;4.97;;
2912;SDS011;1466;48.778;9.166;2022-11-20T14:38:04;8.73;;;4.18;;
2912;SDS011;1466;48.778;9.166;2022-11-20T14:40:37;9.40;;;3.97;;
2912;SDS011;1466;48.778;9.166;2022-11-20T14:43:16;11.50;;;4.60;;
2912;SDS011;1466;48.778;9.166;2022-11-20T14:45:52;16.35;;;5.60;;
2912;SDS011;1466;48.778;9.166;2022-11-20T14:48:27;19.15;;;6.28;;
2912;SDS011;1466;48.778;9.166;2022-11-20T14:54:16;25.60;;;7.07;;
2912;SDS011;1466;48.778;9.166;2022-11-20T14:56:59;14.13;;;4.78;;
2912;SDS011;1466;48.778;9.166;2022-11-20T14:59:27;13.65;;;4.78;;
2912;SDS011;1466;48.778;9.166;2022-11-20T15:02:02;11.80;;;4.65;;
2912;SDS011;1466;48.778;9.166;2022-11-20T15:04:30;21.70;;;6.30;;
2912;SDS011;1466;48.778;9.166;2022-11-20T15:06:57;17.10;;;5.63;;
2912;SDS011;1466;48.778;9.166;2022-11-20T15:09:24;15.15;;;4.82;;
2912;SDS011;1466;48.778;9.166;2022-11-20T15:12:00;13.77;;;4.80;;
2912;SDS011;1466;48.778;9.166;2022-11-20T15:14:28;11.63;;;4.60;;
2912;SDS011;1466;48.778;9.166;2022-11-20T15:16:55;15.27;;;5.20;;
2912;SDS011;1466;48.778;9.166;2022-11-20T15:19:22;22.40;;;6.10;;
2912;SDS011;1466;48.778;9.166;2022-11-20T15:21:49;13.85;;;4.65;;
2912;SDS011;1466;48.778;9.166;2022-11-20T15:24:15;14.02;;;4.97;;
2912;SDS011;1466;48.778;9.166;2022-11-20T15:26:41;16.25;;;5.25;;
2912;SDS011;1466;48.778;9.166;2022-11-20T15:29:08;15.63;;;5.55;;
2912;SDS011;1466;48.778;9.166;2022-11-20T15:31:36;14.68;;;5.20;;
2912;SDS011;1466;48.778;9.166;2022-11-20T15:34:08;16.10;;;5.53;;
2912;SDS011;1466;48.778;9.166;2022-11-20T15:36:39;15.77;;;5.45;;
2912;SDS011;1466;48.778;9.166;2022-11-20T15:39:05;14.63;;;5.07;;
2912;SDS011;1466;48.778;9.166;2022-11-20T15:41:34;14.73;;;4.68;;
2912;SDS011;1466;48.778;9.166;2022-11-20T15:44:01;19.27;;;5.85;;
2912;SDS011;1466;48.778;9.166;2022-11-20T15:46:27;15.95;;;5.70;;
2912;SDS011;1466;48.778;9.166;2022-11-20T15:48:55;12.73;;;4.95;;
2912;SDS011;1466;48.778;9.166;2022-11-20T15:53:58;16.23;;;5.78;;
2912;SDS011;1466;48.778;9.166;2022-11-20T15:56:24;24.53;;;7.23;;
2912;SDS011;1466;48.778;9.166;2022-11-20T15:58:50;17.88;;;5.85;;
2912;SDS011;1466;48.778;9.166;2022-11-20T16:01:17;6.73;;;4.03;;
2912;SDS011;1466;48.778;9.166;2022-11-20T16:03:45;17.73;;;4.82;;
2912;SDS011;1466;48.778;9.166;2022-11-20T16:06:11;11.60;;;4.80;;
2912;SDS011;1466;48.778;9.166;2022-11-20T16:08:37;10.40;;;4.60;;
2912;SDS011;1466;48.778;9.166;2022-11-20T16:11:02;13.40;;;4.87;;
2912;SDS011;1466;48.778;9.166;2022-11-20T16:13:28;13.00;;;4.73;;
2912;SDS011;1466;48.778;9.166;2022-11-20T16:16:19;11.65;;;4.57;;
2912;SDS011;1466;48.778;9.166;2022-11-20T16:18:57;13.52;;;4.53;;
2912;SDS011;1466;48.778;9.166;2022-11-20T16:21:22;15.83;;;5.77;;
2912;SDS011;1466;48.778;9.166;2022-11-20T16:24:01;16.70;;;5.13;;
2912;SDS011;1466;48.778;9.166;2022-11-20T16:26:31;8.20;;;4.20;;
2912;SDS011;1466;48.778;9.166;2022-11-20T16:29:01;14.10;;;4.97;;
2912;SDS011;1466;48.778;9.166;2022-11-20T16:31:28;14.63;;;5.00;;
2912;SDS011;1466;48.778;9.166;2022-11-20T16:33:55;13.25;;;5.10;;
2912;SDS011;1466;48.778;9.166;2022-11-20T16:36:23;10.55;;;5.05;;
2912;SDS011;1466;48.778;9.166;2022-11-20T16:38:53;15.10;;;5.53;;
2912;SDS011;1466;48.778;9.166;2022-11-20T16:41:20;11.38;;;4.43;;
2912;SDS011;1466;48.778;9.166;2022-11-20T16:43:46;9.63;;;4.75;;
2912;SDS011;1466;48.778;9.166;2022-11-20T16:46:14;10.05;;;4.80;;
2912;SDS011;1466;48.778;9.166;2022-11-20T16:48:40;13.05;;;4.80;;
2912;SDS011;1466;48.778;9.166;2022-11-20T16:51:09;10.70;;;4.47;;
2912;SDS011;1466;48.778;9.166;2022-11-20T16:53:36;14.27;;;5.20;;
2912;SDS011;1466;48.778;9.166;2022-11-20T16:56:09;23.05;;;6.60;;
2912;SDS011;1466;48.778;9.166;2022-11-20T16:58:40;11.02;;;4.72;;
2912;SDS011;1466;48.778;9.166;2022-11-20T17:01:09;15.77;;;5.30;;
2912;SDS011;1466;48.778;9.166;2022-11-20T17:03:37;12.55;;;5.07;;
2912;SDS011;1466;48.778;9.166;2022-11-20T17:06:16;13.40;;;5.45;;
2912;SDS011;1466;48.778;9.166;2022-11-20T17:08:43;14.77;;;5.40;;
2912;SDS011;1466;48.778;9.166;2022-11-20T17:11:16;15.02;;;6.22;;
2912;SDS011;1466;48.778;9.166;2022-11-20T17:13:44;11.45;;;4.93;;
2912;SDS011;1466;48.778;9.166;2022-11-20T17:16:10;9.13;;;4.85;;
2912;SDS011;1466;48.778;9.166;2022-11-20T17:18:38;9.73;;;5.07;;
2912;SDS011;1466;48.778;9.166;2022-11-20T17:21:05;26.50;;;8.10;;
2912;SDS011;1466;48.778;9.166;2022-11-20T17:23:31;9.98;;;4.85;;
2912;SDS011;1466;48.778;9.166;2022-11-20T17:28:32;12.63;;;5.40;;